sensor_id;sensor_type;location;lat;lon;timestamp;temperature;humidity
40287;DHT22;25998;46.604;13.610;2022-11-22T00:01:02;3.60;99.90
40287;DHT22;25998;46.604;13.610;2022-11-22T00:04:13;3.60;99.90
40287;DHT22;25998;46.604;13.610;2022-11-22T00:07:24;3.80;99.90
40287;DHT22;25998;46.604;13.610;2022-11-22T00:10:35;3.70;99.90
40287;DHT22;25998;46.604;13.610;2022-11-22T00:13:45;3.60;99.90
40287;DHT22;25998;46.604;13.610;2022-11-22T00:16:56;3.50;99.90
40287;DHT22;25998;46.604;13.610;2022-11-22T00:20:08;3.60;99.90
40287;DHT22;25998;46.604;13.610;2022-11-22T00:23:21;3.80;99.90
40287;DHT22;25998;46.604;13.610;2022-11-22T00:26:32;3.90;99.90
40287;DHT22;25998;46.604;13.610;2022-11-22T00:29:43;4.00;99.90
40287;DHT22;25998;46.604;13.610;2022-11-22T00:32:54;4.00;99.90
40287;DHT22;25998;46.604;13.610;2022-11-22T00:36:05;3.80;99.90
40287;DHT22;25998;46.604;13.610;2022-11-22T00:39:16;3.70;99.90
40287;DHT22;25998;46.604;13.610;2022-11-22T00:42:27;3.60;99.90
40287;DHT22;25998;46.604;13.610;2022-11-22T00:45:41;3.50;99.90
40287;DHT22;25998;46.604;13.610;2022-11-22T00:48:52;3.40;99.90
40287;DHT22;25998;46.604;13.610;2022-11-22T00:52:03;3.40;99.90
40287;DHT22;25998;46.604;13.610;2022-11-22T00:55:14;3.40;99.90
40287;DHT22;25998;46.604;13.610;2022-11-22T00:58:25;3.60;99.90
40287;DHT22;25998;46.604;13.610;2022-11-22T01:01:36;3.60;99.90
40287;DHT22;25998;46.604;13.610;2022-11-22T01:04:46;3.70;99.90
40287;DHT22;25998;46.604;13.610;2022-11-22T01:07:57;3.60;99.90
40287;DHT22;25998;46.604;13.610;2022-11-22T01:11:08;3.50;99.90
40287;DHT22;25998;46.604;13.610;2022-11-22T01:14:19;3.50;99.90
40287;DHT22;25998;46.604;13.610;2022-11-22T01:17:31;3.60;99.90
40287;DHT22;25998;46.604;13.610;2022-11-22T01:20:41;3.70;99.90
40287;DHT22;25998;46.604;13.610;2022-11-22T01:23:52;3.70;99.90
40287;DHT22;25998;46.604;13.610;2022-11-22T01:27:04;3.60;99.90
40287;DHT22;25998;46.604;13.610;2022-11-22T01:30:15;3.80;99.90
40287;DHT22;25998;46.604;13.610;2022-11-22T01:33:27;3.70;99.90
40287;DHT22;25998;46.604;13.610;2022-11-22T01:36:38;3.60;99.90
40287;DHT22;25998;46.604;13.610;2022-11-22T01:39:49;3.50;99.90
40287;DHT22;25998;46.604;13.610;2022-11-22T01:43:00;3.70;99.90
40287;DHT22;25998;46.604;13.610;2022-11-22T01:46:29;3.70;99.90
40287;DHT22;25998;46.604;13.610;2022-11-22T01:50:01;3.80;99.90
40287;DHT22;25998;46.604;13.610;2022-11-22T01:53:18;4.00;99.90
40287;DHT22;25998;46.604;13.610;2022-11-22T01:56:31;4.10;99.90
40287;DHT22;25998;46.604;13.610;2022-11-22T01:59:47;3.90;99.90
40287;DHT22;25998;46.604;13.610;2022-11-22T02:03:03;3.90;99.90
40287;DHT22;25998;46.604;13.610;2022-11-22T02:06:17;3.70;99.90
40287;DHT22;25998;46.604;13.610;2022-11-22T02:09:29;3.30;99.90
40287;DHT22;25998;46.604;13.610;2022-11-22T02:12:42;3.20;99.90
40287;DHT22;25998;46.604;13.610;2022-11-22T02:15:53;3.50;99.90
40287;DHT22;25998;46.604;13.610;2022-11-22T02:19:05;3.70;99.90
40287;DHT22;25998;46.604;13.610;2022-11-22T02:25:56;3.50;99.90
40287;DHT22;25998;46.604;13.610;2022-11-22T02:29:07;3.40;99.90
40287;DHT22;25998;46.604;13.610;2022-11-22T02:32:18;3.40;99.90
40287;DHT22;25998;46.604;13.610;2022-11-22T02:35:30;3.50;99.90
40287;DHT22;25998;46.604;13.610;2022-11-22T02:38:41;3.50;99.90
40287;DHT22;25998;46.604;13.610;2022-11-22T02:41:53;3.50;99.90
40287;DHT22;25998;46.604;13.610;2022-11-22T02:45:05;3.60;99.90
40287;DHT22;25998;46.604;13.610;2022-11-22T02:48:17;3.70;99.90
40287;DHT22;25998;46.604;13.610;2022-11-22T02:51:28;3.70;99.90
40287;DHT22;25998;46.604;13.610;2022-11-22T02:54:39;3.60;99.90
40287;DHT22;25998;46.604;13.610;2022-11-22T02:57:50;3.50;99.90
40287;DHT22;25998;46.604;13.610;2022-11-22T03:01:00;3.40;99.90
40287;DHT22;25998;46.604;13.610;2022-11-22T03:04:11;3.40;99.90
40287;DHT22;25998;46.604;13.610;2022-11-22T03:07:33;3.40;99.90
40287;DHT22;25998;46.604;13.610;2022-11-22T03:10:44;3.40;99.90
40287;DHT22;25998;46.604;13.610;2022-11-22T03:13:55;3.50;99.90
40287;DHT22;25998;46.604;13.610;2022-11-22T03:17:06;3.60;99.90
40287;DHT22;25998;46.604;13.610;2022-11-22T03:20:16;3.60;99.90
40287;DHT22;25998;46.604;13.610;2022-11-22T03:23:28;3.60;99.90
40287;DHT22;25998;46.604;13.610;2022-11-22T03:26:39;3.80;99.90
40287;DHT22;25998;46.604;13.610;2022-11-22T03:29:50;3.70;99.90
40287;DHT22;25998;46.604;13.610;2022-11-22T03:33:01;3.90;99.90
40287;DHT22;25998;46.604;13.610;2022-11-22T03:36:12;3.80;99.90
40287;DHT22;25998;46.604;13.610;2022-11-22T03:39:23;3.80;99.90
40287;DHT22;25998;46.604;13.610;2022-11-22T03:42:34;3.80;99.90
40287;DHT22;25998;46.604;13.610;2022-11-22T03:45:45;3.90;99.90
40287;DHT22;25998;46.604;13.610;2022-11-22T03:48:56;3.80;99.90
40287;DHT22;25998;46.604;13.610;2022-11-22T03:52:07;3.80;99.90
40287;DHT22;25998;46.604;13.610;2022-11-22T03:55:18;3.80;99.90
40287;DHT22;25998;46.604;13.610;2022-11-22T03:58:30;3.90;99.90
40287;DHT22;25998;46.604;13.610;2022-11-22T04:01:41;3.90;99.90
40287;DHT22;25998;46.604;13.610;2022-11-22T04:04:51;3.90;99.90
40287;DHT22;25998;46.604;13.610;2022-11-22T04:08:02;3.90;99.90
40287;DHT22;25998;46.604;13.610;2022-11-22T04:11:13;3.90;99.90
40287;DHT22;25998;46.604;13.610;2022-11-22T04:14:24;3.80;99.90
40287;DHT22;25998;46.604;13.610;2022-11-22T04:17:53;3.90;99.90
40287;DHT22;25998;46.604;13.610;2022-11-22T04:21:04;4.00;99.90
40287;DHT22;25998;46.604;13.610;2022-11-22T04:24:33;3.90;99.90
40287;DHT22;25998;46.604;13.610;2022-11-22T04:28:03;3.70;99.90
40287;DHT22;25998;46.604;13.610;2022-11-22T04:31:14;3.50;99.90
40287;DHT22;25998;46.604;13.610;2022-11-22T04:34:44;3.40;99.90
40287;DHT22;25998;46.604;13.610;2022-11-22T04:37:54;3.40;99.90
40287;DHT22;25998;46.604;13.610;2022-11-22T04:41:05;3.30;99.90
40287;DHT22;25998;46.604;13.610;2022-11-22T04:44:16;3.30;99.90
40287;DHT22;25998;46.604;13.610;2022-11-22T04:47:45;3.20;99.90
40287;DHT22;25998;46.604;13.610;2022-11-22T04:51:11;3.20;99.90
40287;DHT22;25998;46.604;13.610;2022-11-22T04:54:41;3.10;99.90
40287;DHT22;25998;46.604;13.610;2022-11-22T04:57:52;3.00;99.90
40287;DHT22;25998;46.604;13.610;2022-11-22T05:01:03;3.00;99.90
40287;DHT22;25998;46.604;13.610;2022-11-22T05:04:14;3.00;99.90
40287;DHT22;25998;46.604;13.610;2022-11-22T05:07:25;3.00;99.90
40287;DHT22;25998;46.604;13.610;2022-11-22T05:10:36;3.00;99.90
40287;DHT22;25998;46.604;13.610;2022-11-22T05:14:05;3.10;99.90
40287;DHT22;25998;46.604;13.610;2022-11-22T05:17:16;3.10;99.90
40287;DHT22;25998;46.604;13.610;2022-11-22T05:20:27;3.00;99.90
40287;DHT22;25998;46.604;13.610;2022-11-22T05:23:38;2.90;99.90
40287;DHT22;25998;46.604;13.610;2022-11-22T05:27:04;2.80;99.90
40287;DHT22;25998;46.604;13.610;2022-11-22T05:30:15;2.80;99.90
40287;DHT22;25998;46.604;13.610;2022-11-22T05:33:26;2.80;99.90
40287;DHT22;25998;46.604;13.610;2022-11-22T05:36:37;2.80;99.90
40287;DHT22;25998;46.604;13.610;2022-11-22T05:39:47;2.80;99.90
40287;DHT22;25998;46.604;13.610;2022-11-22T05:42:58;2.90;99.90
40287;DHT22;25998;46.604;13.610;2022-11-22T05:46:14;2.90;99.90
40287;DHT22;25998;46.604;13.610;2022-11-22T05:49:25;3.00;99.90
40287;DHT22;25998;46.604;13.610;2022-11-22T05:52:36;3.00;99.90
40287;DHT22;25998;46.604;13.610;2022-11-22T05:55:47;2.90;99.90
40287;DHT22;25998;46.604;13.610;2022-11-22T05:58:58;2.90;99.90
40287;DHT22;25998;46.604;13.610;2022-11-22T06:02:09;2.80;99.90
40287;DHT22;25998;46.604;13.610;2022-11-22T06:05:20;2.80;99.90
40287;DHT22;25998;46.604;13.610;2022-11-22T06:08:32;2.80;99.90
40287;DHT22;25998;46.604;13.610;2022-11-22T06:11:43;2.80;99.90
40287;DHT22;25998;46.604;13.610;2022-11-22T06:14:54;2.70;99.90
40287;DHT22;25998;46.604;13.610;2022-11-22T06:18:05;2.70;99.90
40287;DHT22;25998;46.604;13.610;2022-11-22T06:21:22;2.80;99.90
40287;DHT22;25998;46.604;13.610;2022-11-22T06:24:33;3.00;99.90
40287;DHT22;25998;46.604;13.610;2022-11-22T06:27:44;3.00;99.90
40287;DHT22;25998;46.604;13.610;2022-11-22T06:31:00;2.80;99.90
40287;DHT22;25998;46.604;13.610;2022-11-22T06:34:12;3.00;99.90
40287;DHT22;25998;46.604;13.610;2022-11-22T06:37:23;3.10;99.90
40287;DHT22;25998;46.604;13.610;2022-11-22T06:40:34;3.10;99.90
40287;DHT22;25998;46.604;13.610;2022-11-22T06:43:46;3.00;99.90
40287;DHT22;25998;46.604;13.610;2022-11-22T06:46:57;3.10;99.90
40287;DHT22;25998;46.604;13.610;2022-11-22T06:50:08;3.10;99.90
40287;DHT22;25998;46.604;13.610;2022-11-22T06:53:19;3.20;99.90
40287;DHT22;25998;46.604;13.610;2022-11-22T06:56:34;3.30;99.90
40287;DHT22;25998;46.604;13.610;2022-11-22T06:59:45;3.10;99.90
40287;DHT22;25998;46.604;13.610;2022-11-22T07:02:56;3.10;99.90
40287;DHT22;25998;46.604;13.610;2022-11-22T07:06:09;3.10;99.90
40287;DHT22;25998;46.604;13.610;2022-11-22T07:09:20;3.20;99.90
40287;DHT22;25998;46.604;13.610;2022-11-22T07:12:31;3.20;99.90
40287;DHT22;25998;46.604;13.610;2022-11-22T07:15:41;3.20;99.90
40287;DHT22;25998;46.604;13.610;2022-11-22T07:18:52;3.10;99.90
40287;DHT22;25998;46.604;13.610;2022-11-22T07:22:03;3.10;99.90
40287;DHT22;25998;46.604;13.610;2022-11-22T07:25:14;3.10;99.90
40287;DHT22;25998;46.604;13.610;2022-11-22T07:28:25;3.10;99.90
40287;DHT22;25998;46.604;13.610;2022-11-22T07:31:35;3.20;99.90
40287;DHT22;25998;46.604;13.610;2022-11-22T07:34:46;3.20;99.90
40287;DHT22;25998;46.604;13.610;2022-11-22T07:37:57;3.10;99.90
40287;DHT22;25998;46.604;13.610;2022-11-22T07:41:09;3.00;99.90
40287;DHT22;25998;46.604;13.610;2022-11-22T07:44:19;3.00;99.90
40287;DHT22;25998;46.604;13.610;2022-11-22T07:47:32;3.00;99.90
40287;DHT22;25998;46.604;13.610;2022-11-22T07:50:43;3.10;99.90
40287;DHT22;25998;46.604;13.610;2022-11-22T07:53:54;3.10;99.90
40287;DHT22;25998;46.604;13.610;2022-11-22T07:57:05;3.00;99.90
40287;DHT22;25998;46.604;13.610;2022-11-22T08:00:17;3.00;99.90
40287;DHT22;25998;46.604;13.610;2022-11-22T08:03:27;2.90;99.90
40287;DHT22;25998;46.604;13.610;2022-11-22T08:06:38;2.90;99.90
40287;DHT22;25998;46.604;13.610;2022-11-22T08:09:49;2.90;99.90
40287;DHT22;25998;46.604;13.610;2022-11-22T08:13:00;3.00;99.90
40287;DHT22;25998;46.604;13.610;2022-11-22T08:16:13;3.10;99.90
40287;DHT22;25998;46.604;13.610;2022-11-22T08:19:27;3.20;99.90
40287;DHT22;25998;46.604;13.610;2022-11-22T08:22:40;3.20;99.90
40287;DHT22;25998;46.604;13.610;2022-11-22T08:25:50;3.20;99.90
40287;DHT22;25998;46.604;13.610;2022-11-22T08:29:10;3.10;99.90
40287;DHT22;25998;46.604;13.610;2022-11-22T08:32:21;3.10;99.90
40287;DHT22;25998;46.604;13.610;2022-11-22T08:35:32;3.20;99.90
40287;DHT22;25998;46.604;13.610;2022-11-22T08:38:43;3.20;99.90
40287;DHT22;25998;46.604;13.610;2022-11-22T08:41:54;3.10;99.90
40287;DHT22;25998;46.604;13.610;2022-11-22T08:45:05;3.30;99.90
40287;DHT22;25998;46.604;13.610;2022-11-22T08:48:17;3.40;99.90
40287;DHT22;25998;46.604;13.610;2022-11-22T08:51:28;3.50;99.90
40287;DHT22;25998;46.604;13.610;2022-11-22T08:54:39;3.40;99.90
40287;DHT22;25998;46.604;13.610;2022-11-22T08:57:50;3.40;99.90
40287;DHT22;25998;46.604;13.610;2022-11-22T09:01:05;3.40;99.90
40287;DHT22;25998;46.604;13.610;2022-11-22T09:04:16;3.40;99.90
40287;DHT22;25998;46.604;13.610;2022-11-22T09:07:27;3.40;99.90
40287;DHT22;25998;46.604;13.610;2022-11-22T09:10:39;3.40;99.90
40287;DHT22;25998;46.604;13.610;2022-11-22T09:13:50;3.50;99.90
40287;DHT22;25998;46.604;13.610;2022-11-22T09:17:01;3.60;99.90
40287;DHT22;25998;46.604;13.610;2022-11-22T09:20:11;3.60;99.90
40287;DHT22;25998;46.604;13.610;2022-11-22T09:23:22;3.60;99.90
40287;DHT22;25998;46.604;13.610;2022-11-22T09:26:33;3.60;99.90
40287;DHT22;25998;46.604;13.610;2022-11-22T09:29:44;3.60;99.90
40287;DHT22;25998;46.604;13.610;2022-11-22T09:32:55;3.70;99.90
40287;DHT22;25998;46.604;13.610;2022-11-22T09:36:08;3.70;99.90
40287;DHT22;25998;46.604;13.610;2022-11-22T09:39:19;3.60;99.90
40287;DHT22;25998;46.604;13.610;2022-11-22T09:42:46;3.50;99.90
40287;DHT22;25998;46.604;13.610;2022-11-22T09:46:10;3.40;99.90
40287;DHT22;25998;46.604;13.610;2022-11-22T09:53:29;3.30;99.90
40287;DHT22;25998;46.604;13.610;2022-11-22T09:56:43;3.20;99.90
40287;DHT22;25998;46.604;13.610;2022-11-22T10:00:02;3.00;99.90
40287;DHT22;25998;46.604;13.610;2022-11-22T10:06:59;3.10;99.90
40287;DHT22;25998;46.604;13.610;2022-11-22T10:10:23;3.10;99.90
40287;DHT22;25998;46.604;13.610;2022-11-22T10:13:47;3.20;99.90
40287;DHT22;25998;46.604;13.610;2022-11-22T10:20:24;3.00;99.90
40287;DHT22;25998;46.604;13.610;2022-11-22T10:23:36;3.10;99.90
40287;DHT22;25998;46.604;13.610;2022-11-22T10:26:48;3.10;99.90
40287;DHT22;25998;46.604;13.610;2022-11-22T10:33:24;3.20;99.90
40287;DHT22;25998;46.604;13.610;2022-11-22T10:50:23;3.10;99.90
40287;DHT22;25998;46.604;13.610;2022-11-22T10:54:16;3.10;99.90
40287;DHT22;25998;46.604;13.610;2022-11-22T10:57:35;3.00;99.90
40287;DHT22;25998;46.604;13.610;2022-11-22T11:00:50;2.90;99.90
40287;DHT22;25998;46.604;13.610;2022-11-22T11:04:06;3.10;99.90
40287;DHT22;25998;46.604;13.610;2022-11-22T11:07:21;3.10;99.90
40287;DHT22;25998;46.604;13.610;2022-11-22T11:10:35;3.10;99.90
40287;DHT22;25998;46.604;13.610;2022-11-22T11:13:55;3.20;99.90
40287;DHT22;25998;46.604;13.610;2022-11-22T11:17:13;3.40;99.90
40287;DHT22;25998;46.604;13.610;2022-11-22T11:20:28;3.30;99.90
40287;DHT22;25998;46.604;13.610;2022-11-22T11:23:41;3.30;99.90
40287;DHT22;25998;46.604;13.610;2022-11-22T11:26:53;3.20;99.90
40287;DHT22;25998;46.604;13.610;2022-11-22T11:30:10;3.10;99.90
40287;DHT22;25998;46.604;13.610;2022-11-22T11:33:32;3.10;99.90
40287;DHT22;25998;46.604;13.610;2022-11-22T11:36:44;3.10;99.90
40287;DHT22;25998;46.604;13.610;2022-11-22T11:39:55;3.10;99.90
40287;DHT22;25998;46.604;13.610;2022-11-22T11:43:20;3.10;99.90
40287;DHT22;25998;46.604;13.610;2022-11-22T11:49:51;3.20;99.90
40287;DHT22;25998;46.604;13.610;2022-11-22T11:53:04;3.20;99.90
40287;DHT22;25998;46.604;13.610;2022-11-22T11:59:56;3.10;99.90
40287;DHT22;25998;46.604;13.610;2022-11-22T12:03:12;3.10;99.90
40287;DHT22;25998;46.604;13.610;2022-11-22T12:06:31;3.20;99.90
40287;DHT22;25998;46.604;13.610;2022-11-22T12:09:44;3.20;99.90
40287;DHT22;25998;46.604;13.610;2022-11-22T12:13:15;3.10;99.90
40287;DHT22;25998;46.604;13.610;2022-11-22T12:16:37;3.10;99.90
40287;DHT22;25998;46.604;13.610;2022-11-22T12:20:03;3.00;99.90
40287;DHT22;25998;46.604;13.610;2022-11-22T12:24:06;2.90;99.90
40287;DHT22;25998;46.604;13.610;2022-11-22T12:27:18;2.90;99.90
40287;DHT22;25998;46.604;13.610;2022-11-22T12:30:31;3.00;99.90
40287;DHT22;25998;46.604;13.610;2022-11-22T12:33:46;3.20;99.90
40287;DHT22;25998;46.604;13.610;2022-11-22T12:37:16;3.40;99.90
40287;DHT22;25998;46.604;13.610;2022-11-22T12:40:46;3.40;99.90
40287;DHT22;25998;46.604;13.610;2022-11-22T12:44:00;3.20;99.90
40287;DHT22;25998;46.604;13.610;2022-11-22T12:47:16;3.00;99.90
40287;DHT22;25998;46.604;13.610;2022-11-22T12:50:45;3.00;99.90
40287;DHT22;25998;46.604;13.610;2022-11-22T12:54:03;3.10;99.90
40287;DHT22;25998;46.604;13.610;2022-11-22T12:57:44;3.20;99.90
40287;DHT22;25998;46.604;13.610;2022-11-22T13:01:21;3.30;99.90
40287;DHT22;25998;46.604;13.610;2022-11-22T13:04:46;3.20;99.90
40287;DHT22;25998;46.604;13.610;2022-11-22T13:08:12;3.20;99.90
40287;DHT22;25998;46.604;13.610;2022-11-22T13:11:49;3.10;99.90
40287;DHT22;25998;46.604;13.610;2022-11-22T13:15:04;3.10;99.90
40287;DHT22;25998;46.604;13.610;2022-11-22T13:18:17;3.20;99.90
40287;DHT22;25998;46.604;13.610;2022-11-22T13:28:51;3.40;99.90
40287;DHT22;25998;46.604;13.610;2022-11-22T13:35:37;3.00;99.90
40287;DHT22;25998;46.604;13.610;2022-11-22T13:39:31;3.00;99.90
40287;DHT22;25998;46.604;13.610;2022-11-22T13:42:26;2.90;99.90
40287;DHT22;25998;46.604;13.610;2022-11-22T13:45:56;2.90;99.90
40287;DHT22;25998;46.604;13.610;2022-11-22T13:49:34;3.00;99.90
40287;DHT22;25998;46.604;13.610;2022-11-22T13:52:51;3.10;99.90
40287;DHT22;25998;46.604;13.610;2022-11-22T13:59:28;3.10;99.90
40287;DHT22;25998;46.604;13.610;2022-11-22T14:02:44;3.10;99.90
40287;DHT22;25998;46.604;13.610;2022-11-22T14:05:58;3.10;99.90
40287;DHT22;25998;46.604;13.610;2022-11-22T14:09:32;3.00;99.90
40287;DHT22;25998;46.604;13.610;2022-11-22T14:16:39;3.10;99.90
40287;DHT22;25998;46.604;13.610;2022-11-22T14:23:54;3.10;99.90
40287;DHT22;25998;46.604;13.610;2022-11-22T14:30:19;2.80;99.90
40287;DHT22;25998;46.604;13.610;2022-11-22T14:33:30;2.80;99.90
40287;DHT22;25998;46.604;13.610;2022-11-22T14:36:42;2.90;99.90
40287;DHT22;25998;46.604;13.610;2022-11-22T14:43:32;2.80;99.90
40287;DHT22;25998;46.604;13.610;2022-11-22T14:47:00;2.70;99.90
40287;DHT22;25998;46.604;13.610;2022-11-22T14:53:49;2.80;99.90
40287;DHT22;25998;46.604;13.610;2022-11-22T14:57:06;2.80;99.90
40287;DHT22;25998;46.604;13.610;2022-11-22T15:00:21;2.90;99.90
40287;DHT22;25998;46.604;13.610;2022-11-22T15:14:00;2.70;99.90
40287;DHT22;25998;46.604;13.610;2022-11-22T15:17:16;2.90;99.90
40287;DHT22;25998;46.604;13.610;2022-11-22T15:20:36;2.80;99.90
40287;DHT22;25998;46.604;13.610;2022-11-22T15:23:47;2.80;99.90
40287;DHT22;25998;46.604;13.610;2022-11-22T15:27:17;2.90;99.90
40287;DHT22;25998;46.604;13.610;2022-11-22T15:30:28;2.80;99.90
40287;DHT22;25998;46.604;13.610;2022-11-22T15:33:50;2.80;99.90
40287;DHT22;25998;46.604;13.610;2022-11-22T15:37:12;2.80;99.90
40287;DHT22;25998;46.604;13.610;2022-11-22T15:40:25;2.80;99.90
40287;DHT22;25998;46.604;13.610;2022-11-22T15:43:36;2.60;99.90
40287;DHT22;25998;46.604;13.610;2022-11-22T15:47:02;2.60;99.90
40287;DHT22;25998;46.604;13.610;2022-11-22T15:50:18;2.70;99.90
40287;DHT22;25998;46.604;13.610;2022-11-22T15:53:31;2.70;99.90
40287;DHT22;25998;46.604;13.610;2022-11-22T15:59:59;2.60;99.90
40287;DHT22;25998;46.604;13.610;2022-11-22T16:03:21;2.60;99.90
40287;DHT22;25998;46.604;13.610;2022-11-22T16:06:37;2.60;99.90
40287;DHT22;25998;46.604;13.610;2022-11-22T16:09:49;2.70;99.90
40287;DHT22;25998;46.604;13.610;2022-11-22T16:13:24;2.80;99.90
40287;DHT22;25998;46.604;13.610;2022-11-22T16:16:36;2.60;99.90
40287;DHT22;25998;46.604;13.610;2022-11-22T16:19:50;2.70;99.90
40287;DHT22;25998;46.604;13.610;2022-11-22T16:26:19;2.80;99.90
40287;DHT22;25998;46.604;13.610;2022-11-22T16:29:38;2.90;99.90
40287;DHT22;25998;46.604;13.610;2022-11-22T16:32:50;2.80;99.90
40287;DHT22;25998;46.604;13.610;2022-11-22T16:36:07;2.70;99.90
40287;DHT22;25998;46.604;13.610;2022-11-22T16:39:19;2.70;99.90
40287;DHT22;25998;46.604;13.610;2022-11-22T16:42:31;2.70;99.90
40287;DHT22;25998;46.604;13.610;2022-11-22T16:45:42;2.70;99.90
40287;DHT22;25998;46.604;13.610;2022-11-22T16:48:54;2.80;99.90
40287;DHT22;25998;46.604;13.610;2022-11-22T16:52:10;2.80;99.90
40287;DHT22;25998;46.604;13.610;2022-11-22T16:55:21;2.80;99.90
40287;DHT22;25998;46.604;13.610;2022-11-22T16:58:32;2.70;99.90
40287;DHT22;25998;46.604;13.610;2022-11-22T17:01:43;2.90;99.90
40287;DHT22;25998;46.604;13.610;2022-11-22T17:04:54;2.90;99.90
40287;DHT22;25998;46.604;13.610;2022-11-22T17:08:16;2.90;99.90
40287;DHT22;25998;46.604;13.610;2022-11-22T17:11:31;2.80;99.90
40287;DHT22;25998;46.604;13.610;2022-11-22T17:14:45;2.80;99.90
40287;DHT22;25998;46.604;13.610;2022-11-22T17:17:57;2.80;99.90
40287;DHT22;25998;46.604;13.610;2022-11-22T17:21:28;2.90;99.90
40287;DHT22;25998;46.604;13.610;2022-11-22T17:24:41;3.00;99.90
40287;DHT22;25998;46.604;13.610;2022-11-22T17:27:52;3.00;99.90
40287;DHT22;25998;46.604;13.610;2022-11-22T17:31:12;3.00;99.90
40287;DHT22;25998;46.604;13.610;2022-11-22T17:34:23;3.00;99.90
40287;DHT22;25998;46.604;13.610;2022-11-22T17:37:34;3.00;99.90
40287;DHT22;25998;46.604;13.610;2022-11-22T17:40:45;3.00;99.90
40287;DHT22;25998;46.604;13.610;2022-11-22T17:43:56;2.90;99.90
40287;DHT22;25998;46.604;13.610;2022-11-22T17:47:09;3.00;99.90
40287;DHT22;25998;46.604;13.610;2022-11-22T17:50:20;3.10;99.90
40287;DHT22;25998;46.604;13.610;2022-11-22T17:53:31;3.00;99.90
40287;DHT22;25998;46.604;13.610;2022-11-22T17:56:45;3.00;99.90
40287;DHT22;25998;46.604;13.610;2022-11-22T17:59:56;3.00;99.90
40287;DHT22;25998;46.604;13.610;2022-11-22T18:03:09;3.00;99.90
40287;DHT22;25998;46.604;13.610;2022-11-22T18:06:20;3.10;99.90
40287;DHT22;25998;46.604;13.610;2022-11-22T18:09:34;3.00;99.90
40287;DHT22;25998;46.604;13.610;2022-11-22T18:12:45;3.00;99.90
40287;DHT22;25998;46.604;13.610;2022-11-22T18:15:58;3.10;99.90
40287;DHT22;25998;46.604;13.610;2022-11-22T18:19:09;3.20;99.90
40287;DHT22;25998;46.604;13.610;2022-11-22T18:22:23;3.20;99.90
40287;DHT22;25998;46.604;13.610;2022-11-22T18:25:36;3.10;99.90
40287;DHT22;25998;46.604;13.610;2022-11-22T18:28:46;3.00;99.90
40287;DHT22;25998;46.604;13.610;2022-11-22T18:31:58;3.10;99.90
40287;DHT22;25998;46.604;13.610;2022-11-22T18:35:09;3.20;99.90
40287;DHT22;25998;46.604;13.610;2022-11-22T18:38:20;3.20;99.90
40287;DHT22;25998;46.604;13.610;2022-11-22T18:41:30;3.20;99.90
40287;DHT22;25998;46.604;13.610;2022-11-22T18:44:43;3.20;99.90
40287;DHT22;25998;46.604;13.610;2022-11-22T18:47:57;3.10;99.90
40287;DHT22;25998;46.604;13.610;2022-11-22T18:51:09;3.30;99.90
40287;DHT22;25998;46.604;13.610;2022-11-22T18:54:20;3.20;99.90
40287;DHT22;25998;46.604;13.610;2022-11-22T18:57:32;3.30;99.90
40287;DHT22;25998;46.604;13.610;2022-11-22T19:00:43;3.20;99.90
40287;DHT22;25998;46.604;13.610;2022-11-22T19:03:54;3.10;99.90
40287;DHT22;25998;46.604;13.610;2022-11-22T19:07:05;3.00;99.90
40287;DHT22;25998;46.604;13.610;2022-11-22T19:10:16;3.00;99.90
40287;DHT22;25998;46.604;13.610;2022-11-22T19:13:27;2.90;99.90
40287;DHT22;25998;46.604;13.610;2022-11-22T19:16:37;3.00;99.90
40287;DHT22;25998;46.604;13.610;2022-11-22T19:19:48;3.10;99.90
40287;DHT22;25998;46.604;13.610;2022-11-22T19:23:06;3.10;99.90
40287;DHT22;25998;46.604;13.610;2022-11-22T19:26:19;3.20;99.90
40287;DHT22;25998;46.604;13.610;2022-11-22T19:29:30;3.30;99.90
40287;DHT22;25998;46.604;13.610;2022-11-22T19:32:40;3.20;99.90
40287;DHT22;25998;46.604;13.610;2022-11-22T19:35:59;3.20;99.90
40287;DHT22;25998;46.604;13.610;2022-11-22T19:39:12;3.10;99.90
40287;DHT22;25998;46.604;13.610;2022-11-22T19:42:23;3.20;99.90
40287;DHT22;25998;46.604;13.610;2022-11-22T19:45:36;3.10;99.90
40287;DHT22;25998;46.604;13.610;2022-11-22T19:48:53;3.20;99.90
40287;DHT22;25998;46.604;13.610;2022-11-22T19:52:04;3.10;99.90
40287;DHT22;25998;46.604;13.610;2022-11-22T19:55:15;3.20;99.90
40287;DHT22;25998;46.604;13.610;2022-11-22T19:58:26;3.30;99.90
40287;DHT22;25998;46.604;13.610;2022-11-22T20:01:37;3.20;99.90
40287;DHT22;25998;46.604;13.610;2022-11-22T20:04:49;3.10;99.90
40287;DHT22;25998;46.604;13.610;2022-11-22T20:08:00;3.20;99.90
40287;DHT22;25998;46.604;13.610;2022-11-22T20:11:12;3.20;99.90
40287;DHT22;25998;46.604;13.610;2022-11-22T20:14:24;3.20;99.90
40287;DHT22;25998;46.604;13.610;2022-11-22T20:17:34;3.30;99.90
40287;DHT22;25998;46.604;13.610;2022-11-22T20:20:49;3.10;99.90
40287;DHT22;25998;46.604;13.610;2022-11-22T20:24:03;3.20;99.90
40287;DHT22;25998;46.604;13.610;2022-11-22T20:27:14;3.30;99.90
40287;DHT22;25998;46.604;13.610;2022-11-22T20:30:26;3.30;99.90
40287;DHT22;25998;46.604;13.610;2022-11-22T20:33:39;3.30;99.90
40287;DHT22;25998;46.604;13.610;2022-11-22T20:36:50;3.10;99.90
40287;DHT22;25998;46.604;13.610;2022-11-22T20:40:01;3.20;99.90
40287;DHT22;25998;46.604;13.610;2022-11-22T20:43:12;3.10;99.90
40287;DHT22;25998;46.604;13.610;2022-11-22T20:46:26;3.20;99.90
40287;DHT22;25998;46.604;13.610;2022-11-22T20:49:37;3.10;99.90
40287;DHT22;25998;46.604;13.610;2022-11-22T20:52:48;3.00;99.90
40287;DHT22;25998;46.604;13.610;2022-11-22T20:55:59;3.10;99.90
40287;DHT22;25998;46.604;13.610;2022-11-22T20:59:10;3.10;99.90
40287;DHT22;25998;46.604;13.610;2022-11-22T21:02:21;3.20;99.90
40287;DHT22;25998;46.604;13.610;2022-11-22T21:05:32;3.10;99.90
40287;DHT22;25998;46.604;13.610;2022-11-22T21:08:42;3.10;99.90
40287;DHT22;25998;46.604;13.610;2022-11-22T21:11:55;3.00;99.90
40287;DHT22;25998;46.604;13.610;2022-11-22T21:15:06;3.00;99.90
40287;DHT22;25998;46.604;13.610;2022-11-22T21:18:17;2.90;99.90
40287;DHT22;25998;46.604;13.610;2022-11-22T21:21:29;3.00;99.90
40287;DHT22;25998;46.604;13.610;2022-11-22T21:24:40;3.10;99.90
40287;DHT22;25998;46.604;13.610;2022-11-22T21:27:51;3.30;99.90
40287;DHT22;25998;46.604;13.610;2022-11-22T21:31:03;3.40;99.90
40287;DHT22;25998;46.604;13.610;2022-11-22T21:34:14;3.20;99.90
40287;DHT22;25998;46.604;13.610;2022-11-22T21:37:24;3.30;99.90
40287;DHT22;25998;46.604;13.610;2022-11-22T21:40:35;3.20;99.90
40287;DHT22;25998;46.604;13.610;2022-11-22T21:43:46;3.20;99.90
40287;DHT22;25998;46.604;13.610;2022-11-22T21:46:57;3.00;99.90
40287;DHT22;25998;46.604;13.610;2022-11-22T21:50:08;3.00;99.90
40287;DHT22;25998;46.604;13.610;2022-11-22T21:53:23;3.00;99.90